Time;durP1;ratioP1;P1;durP2;ratioP2;P2;SDS_P1;SDS_P2;PMS_P1;PMS_P2;Temp;Humidity;BMP_temperature;BMP_pressure;BME280_temperature;BME280_humidity;BME280_pressure;Samples;Min_cycle;Max_cycle;Signal;HPM_P1;HPM_P2
2023/04/12 00:00:59;;;;;;;3.30;2.50;;;18.50;73.50;;;;;;5032074;28;20053;-70
2023/04/12 00:03:25;;;;;;;4.80;2.40;;;18.40;73.40;;;;;;5032263;28;20101;-70
2023/04/12 00:05:53;;;;;;;4.90;2.50;;;18.40;73.40;;;;;;5033528;28;20033;-70
2023/04/12 00:08:25;;;;;;;2.85;2.25;;;18.40;73.50;;;;;;5032199;28;20083;-70
2023/04/12 00:10:51;;;;;;;3.57;2.50;;;18.40;73.50;;;;;;5032121;28;20025;-70
2023/04/12 00:13:17;;;;;;;2.50;2.30;;;18.40;73.60;;;;;;5033175;28;20082;-70
2023/04/12 00:15:43;;;;;;;2.88;2.33;;;18.30;73.60;;;;;;5033111;28;20064;-70
2023/04/12 00:18:09;;;;;;;4.38;2.67;;;18.30;73.60;;;;;;5032084;28;20479;-70
2023/04/12 00:20:34;;;;;;;3.47;2.53;;;18.30;73.70;;;;;;5033173;28;20018;-70
2023/04/12 00:23:01;;;;;;;3.63;2.38;;;18.30;73.60;;;;;;5032788;28;20375;-70
2023/04/12 00:25:26;;;;;;;3.65;2.60;;;18.30;73.60;;;;;;5022938;28;20013;-70
2023/04/12 00:27:52;;;;;;;4.80;2.20;;;18.30;73.60;;;;;;5052820;28;20383;-70
2023/04/12 00:30:18;;;;;;;3.45;2.30;;;18.30;73.50;;;;;;5051413;28;20047;-70
2023/04/12 00:32:43;;;;;;;3.55;2.15;;;18.30;73.70;;;;;;5051570;28;20435;-70
2023/04/12 00:35:09;;;;;;;5.00;2.60;;;18.20;73.50;;;;;;5051646;28;20075;-70
2023/04/12 00:37:37;;;;;;;2.92;2.25;;;18.20;73.60;;;;;;5051575;28;20029;-70
2023/04/12 00:40:07;;;;;;;6.90;2.55;;;18.20;73.50;;;;;;5035259;28;20029;-70
2023/04/12 00:42:33;;;;;;;3.05;2.22;;;18.20;73.60;;;;;;5051564;28;20025;-70
2023/04/12 00:44:59;;;;;;;2.40;2.20;;;18.20;73.70;;;;;;5051464;28;20017;-70
2023/04/12 00:47:25;;;;;;;4.00;2.08;;;18.20;73.70;;;;;;5052562;28;20052;-70
2023/04/12 00:49:50;;;;;;;3.42;1.92;;;18.20;73.70;;;;;;5053619;28;20021;-70
2023/04/12 00:52:16;;;;;;;2.47;2.20;;;18.20;73.90;;;;;;5055503;28;20025;-70
2023/04/12 00:54:42;;;;;;;3.50;2.40;;;18.20;74.00;;;;;;5038906;28;20041;-71
2023/04/12 00:57:08;;;;;;;3.42;2.42;;;18.20;74.00;;;;;;5035390;28;20048;-70
2023/04/12 00:59:34;;;;;;;2.58;2.03;;;18.20;74.20;;;;;;5036368;28;20480;-70
2023/04/12 01:01:59;;;;;;;3.47;2.10;;;18.10;74.20;;;;;;5035413;28;20087;-70
2023/04/12 01:04:25;;;;;;;2.90;2.15;;;18.10;74.20;;;;;;5035511;28;20028;-70
2023/04/12 01:07:14;;;;;;;3.35;2.10;;;18.10;74.20;;;;;;5035590;28;20032;-70
2023/04/12 01:09:46;;;;;;;4.35;2.17;;;18.10;74.20;;;;;;5036657;28;20500;-70
2023/04/12 01:12:26;;;;;;;2.77;2.03;;;18.10;74.30;;;;;;5036213;28;20029;-70
2023/04/12 01:15:18;;;;;;;3.58;2.20;;;18.10;74.30;;;;;;5036594;28;20669;-70
2023/04/12 01:18:01;;;;;;;3.00;2.25;;;18.10;74.30;;;;;;5036910;28;20033;-70
2023/04/12 01:20:29;;;;;;;4.65;2.10;;;18.10;74.40;;;;;;5035129;28;20048;-70
2023/04/12 01:23:16;;;;;;;4.78;2.15;;;18.10;74.40;;;;;;5035070;28;20053;-70
2023/04/12 01:26:01;;;;;;;2.67;2.00;;;18.00;74.40;;;;;;5035148;28;20032;-70
2023/04/12 01:28:31;;;;;;;5.15;1.98;;;18.10;74.60;;;;;;5036181;28;20033;-70
2023/04/12 01:30:57;;;;;;;4.70;2.10;;;18.10;74.60;;;;;;5035227;28;20026;-70
2023/04/12 01:33:22;;;;;;;3.05;2.00;;;18.10;74.60;;;;;;5034888;28;20036;-70
2023/04/12 01:35:48;;;;;;;4.15;1.98;;;18.00;74.50;;;;;;5018424;28;20029;-70
2023/04/12 01:38:14;;;;;;;8.20;2.10;;;18.00;74.60;;;;;;5034855;28;20411;-70
2023/04/12 01:40:41;;;;;;;3.00;1.90;;;18.00;74.50;;;;;;5036202;28;20388;-70
2023/04/12 01:43:08;;;;;;;2.78;2.15;;;18.00;74.50;;;;;;5018333;28;20028;-70
2023/04/12 01:45:34;;;;;;;2.35;2.15;;;18.00;74.50;;;;;;5018190;28;20427;-70
2023/04/12 01:48:00;;;;;;;2.22;2.05;;;18.00;74.60;;;;;;5035821;28;20029;-70
2023/04/12 01:50:35;;;;;;;3.60;2.03;;;18.00;74.60;;;;;;5018223;28;20034;-70
2023/04/12 01:53:17;;;;;;;3.22;2.15;;;18.00;74.60;;;;;;5034353;28;20025;-70
2023/04/12 01:55:44;;;;;;;3.17;1.98;;;18.00;74.60;;;;;;5034274;28;20029;-70
2023/04/12 01:58:10;;;;;;;3.05;2.10;;;18.00;74.60;;;;;;5034309;28;20025;-70
2023/04/12 02:00:36;;;;;;;3.88;2.03;;;18.00;74.60;;;;;;5033954;28;20068;-70
2023/04/12 02:03:03;;;;;;;3.75;2.10;;;18.00;74.70;;;;;;5034360;28;20025;-70
2023/04/12 02:05:29;;;;;;;4.00;2.20;;;18.00;74.80;;;;;;5034519;28;20030;-70
2023/04/12 02:07:55;;;;;;;2.83;2.10;;;18.00;74.80;;;;;;5034274;28;20029;-70
2023/04/12 02:10:30;;;;;;;3.50;1.92;;;17.90;74.70;;;;;;5034183;28;20029;-70
2023/04/12 02:13:00;;;;;;;2.25;1.98;;;17.90;74.90;;;;;;5035600;28;20021;-70
2023/04/12 02:15:27;;;;;;;4.88;2.30;;;17.90;74.90;;;;;;5034245;28;20486;-70
2023/04/12 02:17:53;;;;;;;3.08;1.90;;;17.90;75.00;;;;;;5035314;28;20098;-70
2023/04/12 02:20:22;;;;;;;2.78;1.80;;;17.90;74.90;;;;;;5035400;28;20025;-70
2023/04/12 02:22:48;;;;;;;2.13;1.67;;;17.90;74.90;;;;;;5035440;28;20017;-70
2023/04/12 02:25:16;;;;;;;3.08;1.65;;;17.90;75.00;;;;;;5034849;28;20037;-70
2023/04/12 02:27:42;;;;;;;2.58;1.83;;;17.80;75.00;;;;;;5033996;28;20025;-70
2023/04/12 02:30:08;;;;;;;1.90;1.80;;;17.90;75.00;;;;;;5034965;28;20021;-70
2023/04/12 02:32:42;;;;;;;2.65;1.92;;;17.90;75.00;;;;;;5035184;28;20490;-70
2023/04/12 02:35:09;;;;;;;1.80;1.50;;;17.80;75.00;;;;;;5035030;28;20037;-70
2023/04/12 02:37:35;;;;;;;2.65;1.77;;;17.90;75.10;;;;;;5034955;28;20025;-70
2023/04/12 02:40:04;;;;;;;3.58;1.73;;;17.80;75.00;;;;;;5034620;28;20108;-70
2023/04/12 02:42:30;;;;;;;3.53;1.77;;;17.80;75.10;;;;;;5034752;28;20088;-70
2023/04/12 02:44:56;;;;;;;2.08;1.55;;;17.80;75.10;;;;;;5033838;28;20499;-70
2023/04/12 02:47:27;;;;;;;1.52;1.40;;;17.80;75.10;;;;;;5034716;28;20059;-70
2023/04/12 02:49:52;;;;;;;3.10;1.48;;;17.80;75.10;;;;;;5034838;28;20033;-70
2023/04/12 02:52:18;;;;;;;4.05;1.88;;;17.80;75.00;;;;;;5033644;28;20029;-70
2023/04/12 02:54:44;;;;;;;2.15;1.60;;;17.80;75.20;;;;;;5032961;28;20054;-69
2023/04/12 02:57:10;;;;;;;1.70;1.60;;;17.80;75.10;;;;;;5033559;28;20044;-69
2023/04/12 02:59:36;;;;;;;2.90;1.48;;;17.70;75.10;;;;;;5033405;28;20065;-69
2023/04/12 03:02:01;;;;;;;2.33;1.40;;;17.70;75.20;;;;;;5034648;28;20061;-70
2023/04/12 03:04:29;;;;;;;1.95;1.70;;;17.70;75.10;;;;;;5034511;28;20033;-70
2023/04/12 03:06:57;;;;;;;1.58;1.40;;;17.70;75.10;;;;;;5033438;28;20021;-70
2023/04/12 03:09:24;;;;;;;2.33;1.77;;;17.70;75.20;;;;;;5033052;28;20036;-70
2023/04/12 03:11:49;;;;;;;1.77;1.60;;;17.70;75.20;;;;;;5033360;28;20056;-70
2023/04/12 03:14:15;;;;;;;1.88;1.63;;;17.70;75.20;;;;;;5033097;28;20064;-70
2023/04/12 03:16:42;;;;;;;2.28;1.80;;;17.70;75.20;;;;;;5034548;28;20028;-70
2023/04/12 03:19:08;;;;;;;1.92;1.45;;;17.70;75.20;;;;;;5032843;28;20029;-69
2023/04/12 03:21:34;;;;;;;2.08;1.58;;;17.70;75.30;;;;;;5032954;28;20028;-70
2023/04/12 03:24:00;;;;;;;2.67;1.77;;;17.70;75.40;;;;;;5034055;28;20112;-70
2023/04/12 03:26:26;;;;;;;2.03;1.58;;;17.70;75.40;;;;;;5032955;28;20067;-70
2023/04/12 03:28:58;;;;;;;2.53;1.55;;;17.60;75.30;;;;;;5034092;28;20033;-70
2023/04/12 03:31:25;;;;;;;2.78;1.40;;;17.60;75.30;;;;;;5032823;28;20155;-70
2023/04/12 03:33:52;;;;;;;1.98;1.45;;;17.60;75.30;;;;;;5033902;28;20042;-70
2023/04/12 03:36:19;;;;;;;2.08;1.70;;;17.60;75.30;;;;;;5033872;28;20028;-70
2023/04/12 03:38:44;;;;;;;1.63;1.50;;;17.60;75.30;;;;;;5032305;28;20041;-69
2023/04/12 03:41:10;;;;;;;1.73;1.35;;;17.70;75.40;;;;;;5033891;28;20033;-70
2023/04/12 03:43:36;;;;;;;3.08;1.88;;;17.60;75.40;;;;;;5033835;28;20026;-70
2023/04/12 03:46:02;;;;;;;2.35;1.88;;;17.60;75.40;;;;;;5033864;28;20072;-70
2023/04/12 03:48:28;;;;;;;2.30;1.48;;;17.60;75.50;;;;;;5032418;28;20033;-70
2023/04/12 03:50:54;;;;;;;1.92;1.40;;;17.60;75.50;;;;;;5033243;28;20026;-70
2023/04/12 03:53:20;;;;;;;1.73;1.60;;;17.60;75.50;;;;;;5032926;28;20037;-70
2023/04/12 03:55:45;;;;;;;2.65;1.75;;;17.60;75.60;;;;;;5033475;28;20033;-70
2023/04/12 03:58:12;;;;;;;2.53;1.63;;;17.50;76.40;;;;;;5033436;28;20045;-70
2023/04/12 04:00:38;;;;;;;1.77;1.25;;;17.60;75.60;;;;;;5033482;28;20028;-70
2023/04/12 04:03:04;;;;;;;1.48;1.38;;;17.50;75.50;;;;;;5032467;28;20022;-70
2023/04/12 04:05:30;;;;;;;2.00;1.30;;;17.50;75.50;;;;;;5031949;28;20088;-70
2023/04/12 04:08:01;;;;;;;2.53;1.60;;;17.50;75.50;;;;;;5032016;28;20033;-70
2023/04/12 04:10:29;;;;;;;2.30;1.70;;;17.50;75.50;;;;;;5032076;28;20021;-70
2023/04/12 04:12:55;;;;;;;1.60;1.40;;;17.50;75.60;;;;;;5015623;28;20515;-71
2023/04/12 04:15:20;;;;;;;3.20;1.50;;;17.50;75.60;;;;;;5033306;28;20455;-70
2023/04/12 04:17:47;;;;;;;1.40;1.17;;;17.50;75.60;;;;;;5031684;28;20079;-70
2023/04/12 04:20:13;;;;;;;1.92;1.50;;;17.50;75.60;;;;;;5033365;28;20040;-70
2023/04/12 04:22:41;;;;;;;2.05;1.67;;;17.50;76.60;;;;;;5031620;28;20456;-70
2023/04/12 04:25:07;;;;;;;1.70;1.52;;;17.50;75.60;;;;;;5031561;28;20045;-70
2023/04/12 04:27:37;;;;;;;1.85;1.38;;;17.50;75.70;;;;;;5031834;28;20025;-70
2023/04/12 04:30:04;;;;;;;2.15;1.38;;;17.40;75.60;;;;;;5033005;28;20025;-70
2023/04/12 04:32:32;;;;;;;2.58;1.40;;;17.50;75.60;;;;;;5031874;28;20053;-70
2023/04/12 04:34:58;;;;;;;2.47;1.50;;;17.50;75.60;;;;;;5031601;28;20029;-70
2023/04/12 04:37:25;;;;;;;1.73;1.40;;;17.40;75.50;;;;;;5031516;28;20026;-70
2023/04/12 04:39:50;;;;;;;1.30;1.20;;;17.40;75.50;;;;;;5032854;28;20029;-70
2023/04/12 04:42:16;;;;;;;1.50;1.20;;;17.50;75.60;;;;;;5031639;28;20026;-70
2023/04/12 04:44:42;;;;;;;2.63;1.40;;;17.50;75.70;;;;;;5033021;28;20496;-70
2023/04/12 04:47:08;;;;;;;2.35;1.45;;;17.40;75.60;;;;;;5032916;28;20358;-70
2023/04/12 04:49:34;;;;;;;2.60;1.50;;;17.40;75.60;;;;;;5032586;28;20053;-70
2023/04/12 04:52:00;;;;;;;1.17;1.08;;;17.40;75.50;;;;;;5032932;28;20032;-71
2023/04/12 04:54:26;;;;;;;1.17;1.08;;;17.40;75.60;;;;;;5032360;28;20045;-70
2023/04/12 04:56:51;;;;;;;2.60;1.50;;;17.40;75.60;;;;;;5032897;28;20029;-70
2023/04/12 04:59:18;;;;;;;2.47;1.10;;;17.40;75.60;;;;;;5032752;28;20051;-70
2023/04/12 05:01:44;;;;;;;1.92;1.15;;;17.40;75.70;;;;;;5031733;28;20029;-70
2023/04/12 05:04:10;;;;;;;4.90;1.27;;;17.40;75.70;;;;;;5032480;28;20025;-70
2023/04/12 05:06:36;;;;;;;2.00;1.27;;;17.40;75.70;;;;;;5032325;28;20017;-70
2023/04/12 05:09:02;;;;;;;1.55;1.23;;;17.40;75.80;;;;;;5032817;28;20064;-70
2023/04/12 05:11:28;;;;;;;2.22;1.08;;;17.30;75.70;;;;;;5032514;28;20037;-70
2023/04/12 05:13:54;;;;;;;2.45;1.30;;;17.30;75.70;;;;;;5031480;28;20033;-70
2023/04/12 05:16:19;;;;;;;0.95;0.93;;;17.30;75.70;;;;;;5032554;28;20021;-70
2023/04/12 05:18:45;;;;;;;1.38;1.17;;;17.30;75.70;;;;;;5032085;28;20034;-70
2023/04/12 05:21:11;;;;;;;1.50;1.30;;;17.30;75.70;;;;;;5032441;28;20032;-70
2023/04/12 05:23:41;;;;;;;2.10;1.30;;;17.30;75.80;;;;;;5032474;28;20434;-70
2023/04/12 05:26:07;;;;;;;2.35;1.40;;;17.30;75.80;;;;;;5015458;28;20018;-70
2023/04/12 05:28:32;;;;;;;1.45;1.23;;;17.30;75.80;;;;;;5031188;28;20400;-70
2023/04/12 05:30:58;;;;;;;1.30;1.00;;;17.30;75.80;;;;;;5031215;28;20092;-70
2023/04/12 05:33:24;;;;;;;3.95;1.95;;;17.30;75.90;;;;;;5032024;28;20026;-70
2023/04/12 05:35:49;;;;;;;1.33;1.20;;;17.30;75.50;;;;;;5033210;28;20507;-71
2023/04/12 05:38:15;;;;;;;1.65;1.23;;;17.30;75.50;;;;;;5036099;28;20029;-70
2023/04/12 05:40:42;;;;;;;1.17;1.08;;;17.20;75.50;;;;;;5034885;28;20021;-70
2023/04/12 05:43:11;;;;;;;1.80;1.10;;;17.20;75.40;;;;;;5034766;28;20491;-71
2023/04/12 05:45:38;;;;;;;1.33;0.98;;;17.20;75.60;;;;;;5034795;28;20040;-70
2023/04/12 05:48:04;;;;;;;2.22;1.30;;;17.20;75.50;;;;;;5035402;28;20037;-70
2023/04/12 05:50:29;;;;;;;1.48;1.17;;;17.20;75.50;;;;;;5035048;28;20088;-70
2023/04/12 05:52:55;;;;;;;2.72;1.20;;;17.20;75.60;;;;;;5034174;28;20029;-70
2023/04/12 05:55:21;;;;;;;2.05;1.17;;;17.20;75.60;;;;;;5035261;28;20092;-70
2023/04/12 05:57:46;;;;;;;1.40;1.00;;;17.20;75.70;;;;;;5034032;28;20124;-69
2023/04/12 06:00:15;;;;;;;2.45;1.05;;;17.20;75.70;;;;;;5035424;28;20026;-69
2023/04/12 06:02:43;;;;;;;2.50;1.00;;;17.20;75.60;;;;;;5033764;28;20395;-69
2023/04/12 06:05:09;;;;;;;0.73;0.73;;;17.20;75.50;;;;;;5033960;28;20021;-68
2023/04/12 06:07:36;;;;;;;1.73;1.10;;;17.20;75.50;;;;;;5033861;28;20074;-68
2023/04/12 06:10:02;;;;;;;1.33;1.00;;;17.10;75.30;;;;;;5033949;28;20056;-69
2023/04/12 06:12:28;;;;;;;1.17;0.88;;;17.20;75.30;;;;;;5034930;28;20009;-68
2023/04/12 06:14:54;;;;;;;1.17;0.90;;;17.20;75.20;;;;;;5035041;28;20022;-69
2023/04/12 06:17:20;;;;;;;1.25;0.98;;;17.10;75.00;;;;;;5034753;28;20028;-69
2023/04/12 06:19:46;;;;;;;2.20;0.75;;;17.10;74.80;;;;;;5034645;28;20025;-69
2023/04/12 06:22:11;;;;;;;1.65;0.90;;;17.10;74.80;;;;;;5034928;28;20103;-69
2023/04/12 06:24:37;;;;;;;2.35;1.00;;;17.10;74.70;;;;;;5034557;28;20029;-69
2023/04/12 06:27:02;;;;;;;2.15;1.00;;;17.10;74.60;;;;;;5034857;28;20105;-69
2023/04/12 06:29:28;;;;;;;2.30;0.88;;;17.10;74.50;;;;;;5034675;28;20029;-69
2023/04/12 06:31:54;;;;;;;4.30;0.90;;;17.10;74.50;;;;;;5034531;28;20025;-69
2023/04/12 06:34:19;;;;;;;1.55;0.70;;;17.10;74.50;;;;;;5034747;28;20045;-69
2023/04/12 06:36:46;;;;;;;2.03;0.88;;;17.10;74.50;;;;;;5033067;28;20784;-69
2023/04/12 06:39:12;;;;;;;2.03;0.63;;;17.10;74.50;;;;;;5034325;28;20551;-69
2023/04/12 06:41:38;;;;;;;6.10;1.05;;;17.10;74.50;;;;;;5034553;28;20021;-69
2023/04/12 06:44:04;;;;;;;2.33;0.85;;;17.10;74.60;;;;;;5034373;28;20533;-68
2023/04/12 06:46:30;;;;;;;3.53;0.98;;;17.00;74.60;;;;;;5032931;28;20022;-68
2023/04/12 06:48:56;;;;;;;2.08;1.00;;;17.10;74.70;;;;;;5033069;28;20033;-68
2023/04/12 06:51:21;;;;;;;3.17;1.17;;;17.00;74.60;;;;;;5033533;28;20036;-68
2023/04/12 06:53:47;;;;;;;3.63;1.05;;;17.00;74.70;;;;;;5033877;28;20049;-68
2023/04/12 06:56:12;;;;;;;3.95;1.20;;;17.00;74.70;;;;;;5034201;28;20030;-68
2023/04/12 06:58:38;;;;;;;3.53;1.00;;;17.00;74.70;;;;;;5032182;28;20110;-68
2023/04/12 07:01:08;;;;;;;2.30;0.90;;;17.00;74.80;;;;;;5032131;28;20014;-68
2023/04/12 07:03:34;;;;;;;3.17;1.17;;;17.00;74.70;;;;;;5033868;28;20361;-68
2023/04/12 07:06:01;;;;;;;3.40;1.00;;;17.00;74.80;;;;;;5032795;28;20112;-68
2023/04/12 07:08:28;;;;;;;4.00;1.15;;;17.00;74.70;;;;;;5032878;28;20091;-68
2023/04/12 07:10:54;;;;;;;3.05;1.05;;;17.00;74.70;;;;;;5033781;28;20028;-68
2023/04/12 07:13:21;;;;;;;4.07;1.10;;;16.90;74.70;;;;;;5033908;28;20087;-68
2023/04/12 07:15:47;;;;;;;1.05;0.70;;;16.90;74.70;;;;;;5032058;28;20105;-68
2023/04/12 07:18:13;;;;;;;5.32;1.20;;;17.00;74.70;;;;;;5033736;28;20029;-68
2023/04/12 07:20:39;;;;;;;3.83;1.30;;;16.90;74.70;;;;;;5033589;28;20083;-68
2023/04/12 07:23:04;;;;;;;4.35;0.90;;;16.90;74.70;;;;;;5030620;28;20442;-68
2023/04/12 07:25:30;;;;;;;4.18;0.98;;;16.90;74.60;;;;;;5013963;28;20562;-68
2023/04/12 07:27:56;;;;;;;3.42;0.95;;;16.90;74.70;;;;;;5013599;28;20026;-68
2023/04/12 07:30:22;;;;;;;3.65;0.90;;;16.90;74.70;;;;;;5013685;28;20026;-68
2023/04/12 07:32:47;;;;;;;4.45;1.27;;;16.90;74.60;;;;;;5014960;28;20145;-68
2023/04/12 07:35:13;;;;;;;3.22;1.20;;;16.90;74.70;;;;;;5032165;28;20445;-68
2023/04/12 07:37:39;;;;;;;2.85;0.90;;;16.90;74.60;;;;;;5032122;28;20026;-68
2023/04/12 07:40:05;;;;;;;5.97;1.20;;;16.90;74.70;;;;;;5033221;28;20435;-68
2023/04/12 07:42:31;;;;;;;4.65;1.25;;;16.90;74.70;;;;;;5033023;28;20030;-68
2023/04/12 07:44:57;;;;;;;7.35;1.50;;;16.90;74.70;;;;;;5033102;28;20434;-69
2023/04/12 07:47:22;;;;;;;2.90;0.80;;;16.90;74.70;;;;;;5033370;28;20183;-68
2023/04/12 07:49:48;;;;;;;2.70;1.10;;;16.80;74.60;;;;;;5033026;28;20029;-68
2023/04/12 07:52:13;;;;;;;1.20;0.80;;;16.80;74.60;;;;;;5031862;28;20040;-68
2023/04/12 07:54:40;;;;;;;2.38;0.80;;;16.80;74.60;;;;;;5031801;28;20073;-68
2023/04/12 07:57:07;;;;;;;2.25;1.20;;;16.80;74.50;;;;;;5031818;28;20078;-68
2023/04/12 07:59:33;;;;;;;3.55;1.35;;;16.90;74.50;;;;;;5032179;28;20034;-68
2023/04/12 08:01:59;;;;;;;3.20;1.00;;;16.80;74.50;;;;;;5032789;28;20058;-68
2023/04/12 08:04:27;;;;;;;3.22;1.08;;;16.80;74.50;;;;;;5031695;28;20022;-68
2023/04/12 08:06:53;;;;;;;2.80;0.80;;;16.80;74.40;;;;;;5032541;28;20021;-68
2023/04/12 08:09:18;;;;;;;4.25;1.30;;;16.80;74.50;;;;;;5015392;28;20021;-68
2023/04/12 08:11:44;;;;;;;1.55;0.85;;;16.80;74.40;;;;;;5032722;28;20032;-68
2023/04/12 08:14:10;;;;;;;3.55;1.00;;;16.80;74.40;;;;;;5032564;28;20101;-68
2023/04/12 08:16:35;;;;;;;2.97;0.88;;;16.80;74.40;;;;;;5032500;28;20029;-68
2023/04/12 08:19:01;;;;;;;5.35;1.13;;;16.80;74.30;;;;;;5032547;28;20021;-68
2023/04/12 08:21:27;;;;;;;2.78;0.70;;;16.80;74.30;;;;;;5031594;28;20503;-68
2023/04/12 08:23:52;;;;;;;3.10;1.00;;;16.70;74.20;;;;;;5032412;28;20083;-68
2023/04/12 08:26:18;;;;;;;3.97;1.17;;;16.80;75.20;;;;;;5032661;28;20443;-69
2023/04/12 08:28:44;;;;;;;2.70;0.95;;;16.70;74.00;;;;;;5032309;28;20029;-68
2023/04/12 08:31:10;;;;;;;2.30;0.82;;;16.70;74.10;;;;;;5032290;28;20033;-68
2023/04/12 08:33:35;;;;;;;1.25;0.63;;;16.70;74.00;;;;;;5031364;28;20147;-68
2023/04/12 08:36:01;;;;;;;3.25;1.10;;;16.70;74.00;;;;;;5032424;28;20136;-68
2023/04/12 08:38:27;;;;;;;3.85;0.85;;;16.70;74.10;;;;;;5032330;28;20036;-68
2023/04/12 08:40:52;;;;;;;3.28;0.80;;;16.70;74.00;;;;;;5032334;28;20389;-68
2023/04/12 08:43:18;;;;;;;3.75;1.10;;;16.70;74.00;;;;;;5031890;28;20468;-68
2023/04/12 08:45:44;;;;;;;4.13;0.98;;;16.70;73.90;;;;;;5031101;28;20032;-68
2023/04/12 08:48:09;;;;;;;2.22;0.90;;;16.70;74.00;;;;;;5031065;28;20036;-68
2023/04/12 08:50:35;;;;;;;5.57;1.20;;;16.70;73.90;;;;;;5014624;28;20029;-68
2023/04/12 08:53:01;;;;;;;2.15;0.70;;;16.70;73.90;;;;;;5032223;28;20026;-68
2023/04/12 08:55:27;;;;;;;4.20;1.10;;;16.60;73.90;;;;;;5031180;28;20116;-68
2023/04/12 08:57:54;;;;;;;1.55;0.75;;;16.60;73.70;;;;;;5031854;28;20041;-68
2023/04/12 09:00:20;;;;;;;2.03;0.70;;;16.60;73.70;;;;;;5032142;28;20018;-68
2023/04/12 09:02:47;;;;;;;2.95;1.25;;;16.60;73.70;;;;;;5030882;28;20026;-68
2023/04/12 09:05:13;;;;;;;3.33;1.00;;;16.60;73.80;;;;;;5031982;28;20020;-68
2023/04/12 09:07:39;;;;;;;2.05;0.75;;;16.60;73.80;;;;;;5032173;28;20036;-68
2023/04/12 09:10:05;;;;;;;3.22;1.00;;;16.60;73.70;;;;;;5032960;28;20017;-68
2023/04/12 09:12:31;;;;;;;3.65;1.10;;;16.60;73.70;;;;;;5034713;28;20029;-68
2023/04/12 09:15:07;;;;;;;2.33;0.88;;;16.60;73.70;;;;;;5018426;28;20021;-68
2023/04/12 09:17:35;;;;;;;2.83;0.80;;;16.60;73.70;;;;;;5034755;28;20044;-68
2023/04/12 09:20:03;;;;;;;2.10;0.90;;;16.60;73.70;;;;;;5018662;28;20022;-68
2023/04/12 09:22:33;;;;;;;2.80;0.70;;;16.60;73.70;;;;;;5035864;28;20472;-68
2023/04/12 09:24:58;;;;;;;3.47;0.90;;;16.50;73.70;;;;;;5035599;28;20025;-68
2023/04/12 09:27:24;;;;;;;3.60;0.98;;;16.60;73.50;;;;;;5035814;28;20022;-68
2023/04/12 09:29:50;;;;;;;2.63;1.00;;;16.60;73.30;;;;;;5018199;28;20021;-68
2023/04/12 09:32:26;;;;;;;4.07;0.90;;;16.60;73.40;;;;;;5034730;28;20025;-68
2023/04/12 09:34:56;;;;;;;4.43;1.20;;;16.50;73.40;;;;;;5034719;28;20106;-68
2023/04/12 09:37:22;;;;;;;3.47;1.23;;;16.50;73.40;;;;;;5035727;28;20219;-68
2023/04/12 09:39:48;;;;;;;4.13;1.02;;;16.60;73.30;;;;;;5034230;28;20536;-68
2023/04/12 09:42:16;;;;;;;3.40;1.20;;;16.50;73.30;;;;;;5017720;28;20026;-68
2023/04/12 09:44:41;;;;;;;3.40;0.80;;;16.50;73.30;;;;;;5035524;28;20489;-68
2023/04/12 09:47:07;;;;;;;4.07;1.08;;;16.50;73.20;;;;;;5034038;28;20164;-68
2023/04/12 09:49:42;;;;;;;2.83;0.73;;;16.50;72.90;;;;;;5034496;28;20028;-68
2023/04/12 09:52:12;;;;;;;6.00;1.23;;;16.50;72.70;;;;;;5035139;28;20026;-68
2023/04/12 09:54:44;;;;;;;2.85;0.70;;;16.50;72.60;;;;;;5033754;28;20041;-68
2023/04/12 09:57:10;;;;;;;3.58;0.95;;;16.50;72.80;;;;;;5034093;28;20547;-68
2023/04/12 09:59:40;;;;;;;2.67;0.90;;;16.40;72.30;;;;;;5033863;28;20069;-68
2023/04/12 10:02:21;;;;;;;3.10;0.82;;;16.40;72.50;;;;;;5033873;28;20032;-68
2023/04/12 10:04:46;;;;;;;1.83;0.70;;;16.40;72.50;;;;;;5033860;28;20124;-68
2023/04/12 10:07:12;;;;;;;2.00;0.80;;;16.40;72.70;;;;;;5033687;28;20499;-68
2023/04/12 10:09:39;;;;;;;3.55;0.90;;;16.40;72.60;;;;;;5033866;28;20111;-68
2023/04/12 10:12:05;;;;;;;2.45;1.00;;;16.40;72.60;;;;;;5033730;28;20026;-68
2023/04/12 10:14:30;;;;;;;1.75;0.77;;;16.40;72.60;;;;;;5033834;28;20108;-68
2023/04/12 10:16:57;;;;;;;1.33;0.68;;;16.40;72.50;;;;;;5033741;28;20037;-68
2023/04/12 10:19:28;;;;;;;4.15;1.35;;;16.40;72.40;;;;;;5033612;28;20022;-68
2023/04/12 10:21:57;;;;;;;3.38;0.90;;;16.40;72.50;;;;;;5016882;28;20026;-68
2023/04/12 10:24:26;;;;;;;2.35;1.00;;;16.40;73.50;;;;;;5033382;28;20488;-68
2023/04/12 10:26:54;;;;;;;2.70;1.00;;;16.40;72.40;;;;;;5017336;28;20017;-68
2023/04/12 10:29:37;;;;;;;3.70;0.80;;;16.40;72.40;;;;;;5033470;28;20032;-68
2023/04/12 10:32:21;;;;;;;;;;;16.40;72.20;;;;;;5034993;28;20033;-68
2023/04/12 10:34:55;;;;;;;3.38;1.10;;;16.40;72.10;;;;;;5034571;28;19991;-68
2023/04/12 10:37:21;;;;;;;2.75;0.85;;;16.30;72.20;;;;;;5033372;28;20144;-68
2023/04/12 10:39:52;;;;;;;2.13;0.70;;;16.30;72.10;;;;;;5034068;28;20107;-68
2023/04/12 10:42:25;;;;;;;4.95;1.13;;;16.30;72.10;;;;;;5016664;28;20021;-68
2023/04/12 10:45:10;;;;;;;2.33;0.80;;;16.30;72.20;;;;;;5034416;28;20030;-68
2023/04/12 10:47:47;;;;;;;3.67;0.70;;;16.30;72.20;;;;;;5033443;28;20021;-69
2023/04/12 10:50:30;;;;;;;3.50;1.00;;;16.30;72.10;;;;;;5034341;28;20025;-68
2023/04/12 10:53:17;;;;;;;2.10;0.77;;;16.30;72.10;;;;;;5032709;28;20014;-68
2023/04/12 10:55:43;;;;;;;2.78;0.70;;;16.30;72.20;;;;;;5032884;28;20030;-68
2023/04/12 10:58:09;;;;;;;3.20;0.82;;;16.30;72.20;;;;;;5016653;28;20037;-68
2023/04/12 11:00:57;;;;;;;3.28;0.73;;;16.30;72.20;;;;;;5032711;28;20392;-68
2023/04/12 11:03:26;;;;;;;3.17;0.80;;;16.30;72.00;;;;;;5034086;28;20450;-68
2023/04/12 11:06:00;;;;;;;2.10;0.77;;;16.30;72.00;;;;;;5016324;28;20450;-68
2023/04/12 11:08:29;;;;;;;3.78;1.00;;;16.20;71.70;;;;;;5033573;28;20087;-68
2023/04/12 11:11:02;;;;;;;1.98;0.88;;;16.20;71.70;;;;;;5032740;28;20036;-68
2023/04/12 11:13:28;;;;;;;3.45;1.17;;;16.20;71.50;;;;;;5032544;28;20464;-68
2023/04/12 11:15:55;;;;;;;4.75;0.88;;;16.20;71.50;;;;;;5032677;28;20099;-67
2023/04/12 11:18:21;;;;;;;1.70;0.75;;;16.20;71.60;;;;;;5032532;28;20029;-68
2023/04/12 11:20:47;;;;;;;2.25;0.75;;;16.20;71.50;;;;;;5032557;28;20033;-69
2023/04/12 11:23:12;;;;;;;2.45;0.90;;;16.30;71.70;;;;;;5032061;28;20025;-68
2023/04/12 11:25:39;;;;;;;1.27;0.80;;;16.20;71.60;;;;;;5016194;28;20383;-68
2023/04/12 11:28:04;;;;;;;3.80;0.93;;;16.20;71.40;;;;;;5032342;28;20042;-68
2023/04/12 11:30:30;;;;;;;2.25;0.70;;;16.20;71.40;;;;;;5033598;28;20134;-68
2023/04/12 11:32:56;;;;;;;1.95;0.73;;;16.20;71.50;;;;;;5032840;28;20143;-68
2023/04/12 11:35:26;;;;;;;2.13;0.70;;;16.20;71.60;;;;;;5033651;28;20400;-68
2023/04/12 11:37:53;;;;;;;2.13;0.90;;;16.20;71.50;;;;;;5032341;28;20021;-68
2023/04/12 11:40:21;;;;;;;3.15;0.80;;;16.20;71.50;;;;;;5016036;28;20057;-69
2023/04/12 11:42:47;;;;;;;3.25;0.80;;;16.20;71.40;;;;;;5032174;28;20029;-68
2023/04/12 11:45:17;;;;;;;3.17;0.70;;;16.20;71.40;;;;;;5033285;28;20052;-68
2023/04/12 11:47:43;;;;;;;2.08;0.85;;;16.20;71.40;;;;;;5016217;28;20030;-68
2023/04/12 11:50:09;;;;;;;4.60;1.08;;;16.20;71.40;;;;;;5031618;28;20028;-68
2023/04/12 11:52:35;;;;;;;3.13;0.98;;;16.20;72.30;;;;;;5031868;28;20022;-69
2023/04/12 11:55:03;;;;;;;2.40;0.70;;;16.20;71.30;;;;;;5031974;28;20431;-69
2023/04/12 11:57:29;;;;;;;2.90;0.90;;;16.20;71.30;;;;;;5015863;28;20057;-68
2023/04/12 11:59:56;;;;;;;1.70;0.93;;;16.20;71.30;;;;;;5031541;28;20068;-68
2023/04/12 12:02:22;;;;;;;2.03;0.93;;;16.20;70.90;;;;;;5031608;28;20033;-68
2023/04/12 12:04:48;;;;;;;3.92;1.00;;;16.20;71.00;;;;;;5031626;28;20033;-68
2023/04/12 12:07:14;;;;;;;2.97;0.65;;;16.10;71.00;;;;;;5031512;28;20013;-68
2023/04/12 12:09:40;;;;;;;2.10;0.80;;;16.20;71.20;;;;;;5015461;28;20021;-68
2023/04/12 12:12:07;;;;;;;4.47;0.77;;;16.10;71.20;;;;;;4998674;28;20051;-68
2023/04/12 12:14:34;;;;;;;3.03;1.02;;;16.10;70.90;;;;;;5015195;28;20028;-68
2023/04/12 12:17:00;;;;;;;4.53;1.38;;;16.10;70.90;;;;;;5031670;28;20561;-68
2023/04/12 12:19:30;;;;;;;3.05;1.05;;;16.10;70.90;;;;;;5030984;28;20033;-68
2023/04/12 12:22:16;;;;;;;2.08;1.02;;;16.10;71.00;;;;;;5015541;28;20484;-68
2023/04/12 12:24:53;;;;;;;4.25;0.98;;;16.10;71.10;;;;;;5031324;28;20017;-68
2023/04/12 12:27:23;;;;;;;2.38;0.70;;;16.10;71.20;;;;;;5031251;28;20026;-68
2023/04/12 12:29:54;;;;;;;1.70;0.85;;;16.10;71.20;;;;;;5014952;28;20017;-68
2023/04/12 12:32:21;;;;;;;1.67;0.88;;;16.10;71.20;;;;;;5031265;28;20037;-68
2023/04/12 12:34:54;;;;;;;2.75;0.90;;;16.10;71.20;;;;;;5031281;28;20029;-68
2023/04/12 12:37:24;;;;;;;4.45;0.90;;;16.10;71.20;;;;;;5014887;28;20108;-68
2023/04/12 12:40:27;;;;;;;2.97;0.73;;;16.10;71.20;;;;;;5031293;28;20021;-69
2023/04/12 12:42:53;;;;;;;2.50;0.80;;;16.10;71.20;;;;;;5024630;28;20103;-68
2023/04/12 12:45:20;;;;;;;2.13;0.70;;;16.10;71.30;;;;;;5030890;28;20343;-68
2023/04/12 12:47:50;;;;;;;3.83;1.33;;;16.10;71.20;;;;;;5031255;28;20361;-68
2023/04/12 12:50:23;;;;;;;2.97;1.08;;;16.10;70.70;;;;;;5030838;28;20025;-68